sensor_id;sensor_type;location;lat;lon;timestamp;P1;durP1;ratioP1;P2;durP2;ratioP2
7939;SDS011;4015;48.888;9.226;2023-07-08T00:01:04;7.97;;;5.68;;
7939;SDS011;4015;48.888;9.226;2023-07-08T00:03:33;7.68;;;5.22;;
7939;SDS011;4015;48.888;9.226;2023-07-08T00:05:59;8.35;;;5.70;;
7939;SDS011;4015;48.888;9.226;2023-07-08T00:08:24;9.57;;;5.82;;
7939;SDS011;4015;48.888;9.226;2023-07-08T00:10:50;7.95;;;5.28;;
7939;SDS011;4015;48.888;9.226;2023-07-08T00:13:15;6.45;;;5.55;;
7939;SDS011;4015;48.888;9.226;2023-07-08T00:15:40;7.00;;;5.30;;
7939;SDS011;4015;48.888;9.226;2023-07-08T00:18:12;9.68;;;5.45;;
7939;SDS011;4015;48.888;9.226;2023-07-08T00:20:44;9.98;;;5.65;;
7939;SDS011;4015;48.888;9.226;2023-07-08T00:23:12;11.68;;;5.68;;
7939;SDS011;4015;48.888;9.226;2023-07-08T00:25:37;8.68;;;5.85;;
7939;SDS011;4015;48.888;9.226;2023-07-08T00:30:46;7.85;;;5.07;;
7939;SDS011;4015;48.888;9.226;2023-07-08T00:33:11;7.95;;;5.80;;
7939;SDS011;4015;48.888;9.226;2023-07-08T00:35:38;7.05;;;5.28;;
7939;SDS011;4015;48.888;9.226;2023-07-08T00:38:15;7.22;;;5.65;;
7939;SDS011;4015;48.888;9.226;2023-07-08T00:48:37;6.88;;;6.03;;
7939;SDS011;4015;48.888;9.226;2023-07-08T00:51:06;7.82;;;4.97;;
7939;SDS011;4015;48.888;9.226;2023-07-08T00:53:36;7.85;;;5.60;;
7939;SDS011;4015;48.888;9.226;2023-07-08T00:56:03;7.53;;;5.50;;
7939;SDS011;4015;48.888;9.226;2023-07-08T00:58:34;9.07;;;6.03;;
7939;SDS011;4015;48.888;9.226;2023-07-08T01:01:06;8.32;;;5.57;;
7939;SDS011;4015;48.888;9.226;2023-07-08T01:03:33;6.32;;;5.20;;
7939;SDS011;4015;48.888;9.226;2023-07-08T01:06:05;7.78;;;5.43;;
7939;SDS011;4015;48.888;9.226;2023-07-08T01:08:31;7.03;;;5.32;;
7939;SDS011;4015;48.888;9.226;2023-07-08T01:11:01;8.82;;;5.63;;
7939;SDS011;4015;48.888;9.226;2023-07-08T01:13:30;8.20;;;5.95;;
7939;SDS011;4015;48.888;9.226;2023-07-08T01:16:00;6.75;;;5.40;;
7939;SDS011;4015;48.888;9.226;2023-07-08T01:18:26;6.97;;;5.45;;
7939;SDS011;4015;48.888;9.226;2023-07-08T01:20:53;8.93;;;5.75;;
7939;SDS011;4015;48.888;9.226;2023-07-08T01:23:20;8.93;;;5.53;;
7939;SDS011;4015;48.888;9.226;2023-07-08T01:25:46;7.72;;;5.90;;
7939;SDS011;4015;48.888;9.226;2023-07-08T01:28:12;6.72;;;5.20;;
7939;SDS011;4015;48.888;9.226;2023-07-08T01:30:38;6.47;;;5.40;;
7939;SDS011;4015;48.888;9.226;2023-07-08T01:33:12;6.70;;;5.25;;
7939;SDS011;4015;48.888;9.226;2023-07-08T01:35:43;8.40;;;5.47;;
7939;SDS011;4015;48.888;9.226;2023-07-08T01:38:09;7.13;;;5.30;;
7939;SDS011;4015;48.888;9.226;2023-07-08T01:40:46;7.18;;;5.20;;
7939;SDS011;4015;48.888;9.226;2023-07-08T01:43:13;7.10;;;5.55;;
7939;SDS011;4015;48.888;9.226;2023-07-08T01:45:39;7.28;;;5.88;;
7939;SDS011;4015;48.888;9.226;2023-07-08T01:48:07;7.03;;;5.57;;
7939;SDS011;4015;48.888;9.226;2023-07-08T01:50:37;8.05;;;5.70;;
7939;SDS011;4015;48.888;9.226;2023-07-08T01:53:08;7.10;;;5.60;;
7939;SDS011;4015;48.888;9.226;2023-07-08T01:55:36;8.55;;;5.28;;
7939;SDS011;4015;48.888;9.226;2023-07-08T01:58:02;6.47;;;5.32;;
7939;SDS011;4015;48.888;9.226;2023-07-08T02:00:27;7.82;;;5.57;;
7939;SDS011;4015;48.888;9.226;2023-07-08T02:02:52;6.07;;;5.47;;
7939;SDS011;4015;48.888;9.226;2023-07-08T02:05:18;8.95;;;5.35;;
7939;SDS011;4015;48.888;9.226;2023-07-08T02:07:43;11.95;;;5.70;;
7939;SDS011;4015;48.888;9.226;2023-07-08T02:10:09;7.72;;;5.45;;
7939;SDS011;4015;48.888;9.226;2023-07-08T02:12:34;6.90;;;5.88;;
7939;SDS011;4015;48.888;9.226;2023-07-08T02:15:00;8.10;;;5.75;;
7939;SDS011;4015;48.888;9.226;2023-07-08T02:17:26;6.57;;;5.38;;
7939;SDS011;4015;48.888;9.226;2023-07-08T02:19:55;7.03;;;5.82;;
7939;SDS011;4015;48.888;9.226;2023-07-08T02:22:21;7.15;;;5.57;;
7939;SDS011;4015;48.888;9.226;2023-07-08T02:24:46;8.75;;;5.43;;
7939;SDS011;4015;48.888;9.226;2023-07-08T02:27:12;6.90;;;5.65;;
7939;SDS011;4015;48.888;9.226;2023-07-08T02:29:38;7.78;;;5.45;;
7939;SDS011;4015;48.888;9.226;2023-07-08T02:32:04;8.02;;;6.07;;
7939;SDS011;4015;48.888;9.226;2023-07-08T02:34:29;7.03;;;5.50;;
7939;SDS011;4015;48.888;9.226;2023-07-08T02:36:55;7.15;;;6.05;;
7939;SDS011;4015;48.888;9.226;2023-07-08T02:39:21;7.95;;;4.93;;
7939;SDS011;4015;48.888;9.226;2023-07-08T02:41:47;7.80;;;5.60;;
7939;SDS011;4015;48.888;9.226;2023-07-08T02:44:12;7.85;;;5.57;;
7939;SDS011;4015;48.888;9.226;2023-07-08T02:46:37;9.75;;;5.57;;
7939;SDS011;4015;48.888;9.226;2023-07-08T02:49:03;9.00;;;5.47;;
7939;SDS011;4015;48.888;9.226;2023-07-08T02:51:29;10.30;;;6.10;;
7939;SDS011;4015;48.888;9.226;2023-07-08T02:53:54;8.07;;;5.70;;
7939;SDS011;4015;48.888;9.226;2023-07-08T02:56:20;8.40;;;5.78;;
7939;SDS011;4015;48.888;9.226;2023-07-08T02:58:47;7.28;;;5.28;;
7939;SDS011;4015;48.888;9.226;2023-07-08T03:01:13;8.40;;;6.38;;
7939;SDS011;4015;48.888;9.226;2023-07-08T03:03:42;8.07;;;6.00;;
7939;SDS011;4015;48.888;9.226;2023-07-08T03:06:08;8.60;;;5.15;;
7939;SDS011;4015;48.888;9.226;2023-07-08T03:08:34;8.82;;;5.95;;
7939;SDS011;4015;48.888;9.226;2023-07-08T03:11:00;8.82;;;5.30;;
7939;SDS011;4015;48.888;9.226;2023-07-08T03:13:28;8.65;;;5.53;;
7939;SDS011;4015;48.888;9.226;2023-07-08T03:15:54;5.28;;;4.70;;
7939;SDS011;4015;48.888;9.226;2023-07-08T03:18:20;5.72;;;5.10;;
7939;SDS011;4015;48.888;9.226;2023-07-08T03:20:48;10.52;;;6.50;;
7939;SDS011;4015;48.888;9.226;2023-07-08T03:23:14;8.68;;;5.80;;
7939;SDS011;4015;48.888;9.226;2023-07-08T03:25:39;9.05;;;6.47;;
7939;SDS011;4015;48.888;9.226;2023-07-08T03:28:07;9.38;;;6.03;;
7939;SDS011;4015;48.888;9.226;2023-07-08T03:30:39;7.88;;;5.40;;
7939;SDS011;4015;48.888;9.226;2023-07-08T03:33:04;6.90;;;5.60;;
7939;SDS011;4015;48.888;9.226;2023-07-08T03:35:29;7.22;;;5.25;;
7939;SDS011;4015;48.888;9.226;2023-07-08T03:37:55;6.28;;;5.10;;
7939;SDS011;4015;48.888;9.226;2023-07-08T03:40:20;7.80;;;5.95;;
7939;SDS011;4015;48.888;9.226;2023-07-08T03:42:45;6.85;;;5.10;;
7939;SDS011;4015;48.888;9.226;2023-07-08T03:45:11;7.85;;;5.15;;
7939;SDS011;4015;48.888;9.226;2023-07-08T03:47:36;6.70;;;4.95;;
7939;SDS011;4015;48.888;9.226;2023-07-08T03:50:02;7.00;;;5.70;;
7939;SDS011;4015;48.888;9.226;2023-07-08T03:52:27;7.03;;;5.43;;
7939;SDS011;4015;48.888;9.226;2023-07-08T03:54:53;9.27;;;6.57;;
7939;SDS011;4015;48.888;9.226;2023-07-08T03:57:18;9.48;;;5.97;;
7939;SDS011;4015;48.888;9.226;2023-07-08T03:59:44;7.07;;;5.32;;
7939;SDS011;4015;48.888;9.226;2023-07-08T04:02:12;7.72;;;5.40;;
7939;SDS011;4015;48.888;9.226;2023-07-08T04:04:38;6.72;;;5.43;;
7939;SDS011;4015;48.888;9.226;2023-07-08T04:07:04;8.13;;;5.22;;
7939;SDS011;4015;48.888;9.226;2023-07-08T04:09:29;10.30;;;5.70;;
7939;SDS011;4015;48.888;9.226;2023-07-08T04:11:55;5.88;;;4.85;;
7939;SDS011;4015;48.888;9.226;2023-07-08T04:14:20;7.22;;;5.72;;
7939;SDS011;4015;48.888;9.226;2023-07-08T04:19:22;8.13;;;6.03;;
7939;SDS011;4015;48.888;9.226;2023-07-08T04:21:48;7.95;;;6.15;;
7939;SDS011;4015;48.888;9.226;2023-07-08T04:24:14;7.97;;;6.10;;
7939;SDS011;4015;48.888;9.226;2023-07-08T04:26:41;7.30;;;5.20;;
7939;SDS011;4015;48.888;9.226;2023-07-08T04:29:09;8.25;;;5.40;;
7939;SDS011;4015;48.888;9.226;2023-07-08T04:31:36;10.30;;;6.07;;
7939;SDS011;4015;48.888;9.226;2023-07-08T04:34:01;8.88;;;6.43;;
7939;SDS011;4015;48.888;9.226;2023-07-08T04:36:27;7.55;;;5.72;;
7939;SDS011;4015;48.888;9.226;2023-07-08T04:38:52;6.70;;;5.30;;
7939;SDS011;4015;48.888;9.226;2023-07-08T04:41:17;10.30;;;6.22;;
7939;SDS011;4015;48.888;9.226;2023-07-08T04:43:43;9.02;;;5.07;;
7939;SDS011;4015;48.888;9.226;2023-07-08T04:46:52;7.95;;;5.88;;
7939;SDS011;4015;48.888;9.226;2023-07-08T04:49:06;8.23;;;5.75;;
7939;SDS011;4015;48.888;9.226;2023-07-08T04:51:34;7.95;;;6.38;;
7939;SDS011;4015;48.888;9.226;2023-07-08T04:54:00;10.77;;;5.90;;
7939;SDS011;4015;48.888;9.226;2023-07-08T04:56:34;7.63;;;5.45;;
7939;SDS011;4015;48.888;9.226;2023-07-08T04:59:01;8.32;;;5.22;;
7939;SDS011;4015;48.888;9.226;2023-07-08T05:01:27;7.22;;;5.35;;
7939;SDS011;4015;48.888;9.226;2023-07-08T05:03:53;7.45;;;5.43;;
7939;SDS011;4015;48.888;9.226;2023-07-08T05:06:18;6.93;;;5.55;;
7939;SDS011;4015;48.888;9.226;2023-07-08T05:08:44;7.25;;;6.10;;
7939;SDS011;4015;48.888;9.226;2023-07-08T05:11:09;10.40;;;5.80;;
7939;SDS011;4015;48.888;9.226;2023-07-08T05:13:35;7.03;;;5.47;;
7939;SDS011;4015;48.888;9.226;2023-07-08T05:16:00;7.03;;;5.25;;
7939;SDS011;4015;48.888;9.226;2023-07-08T05:18:25;7.68;;;5.93;;
7939;SDS011;4015;48.888;9.226;2023-07-08T05:20:51;7.32;;;5.75;;
7939;SDS011;4015;48.888;9.226;2023-07-08T05:23:17;9.13;;;6.60;;
7939;SDS011;4015;48.888;9.226;2023-07-08T05:25:43;8.30;;;5.93;;
7939;SDS011;4015;48.888;9.226;2023-07-08T05:28:08;7.10;;;5.45;;
7939;SDS011;4015;48.888;9.226;2023-07-08T05:30:35;8.15;;;5.95;;
7939;SDS011;4015;48.888;9.226;2023-07-08T05:33:00;8.82;;;5.40;;
7939;SDS011;4015;48.888;9.226;2023-07-08T05:35:26;6.85;;;5.53;;
7939;SDS011;4015;48.888;9.226;2023-07-08T05:37:51;7.53;;;5.75;;
7939;SDS011;4015;48.888;9.226;2023-07-08T05:40:16;10.52;;;5.80;;
7939;SDS011;4015;48.888;9.226;2023-07-08T05:42:42;9.95;;;5.63;;
7939;SDS011;4015;48.888;9.226;2023-07-08T05:45:07;8.27;;;5.90;;
7939;SDS011;4015;48.888;9.226;2023-07-08T05:47:35;8.55;;;5.75;;
7939;SDS011;4015;48.888;9.226;2023-07-08T05:50:00;9.20;;;5.30;;
7939;SDS011;4015;48.888;9.226;2023-07-08T05:52:26;6.90;;;4.93;;
7939;SDS011;4015;48.888;9.226;2023-07-08T05:54:51;7.10;;;5.85;;
7939;SDS011;4015;48.888;9.226;2023-07-08T05:57:17;9.95;;;5.95;;
7939;SDS011;4015;48.888;9.226;2023-07-08T05:59:42;7.55;;;6.20;;
7939;SDS011;4015;48.888;9.226;2023-07-08T06:02:08;6.85;;;5.57;;
7939;SDS011;4015;48.888;9.226;2023-07-08T06:04:35;7.03;;;5.45;;
7939;SDS011;4015;48.888;9.226;2023-07-08T06:07:00;10.85;;;6.00;;
7939;SDS011;4015;48.888;9.226;2023-07-08T06:09:26;7.75;;;5.75;;
7939;SDS011;4015;48.888;9.226;2023-07-08T06:11:51;7.78;;;5.65;;
7939;SDS011;4015;48.888;9.226;2023-07-08T06:14:16;7.90;;;6.28;;
7939;SDS011;4015;48.888;9.226;2023-07-08T06:16:41;10.50;;;6.32;;
7939;SDS011;4015;48.888;9.226;2023-07-08T06:19:07;7.68;;;5.85;;
7939;SDS011;4015;48.888;9.226;2023-07-08T06:21:32;9.18;;;5.60;;
7939;SDS011;4015;48.888;9.226;2023-07-08T06:23:58;7.00;;;5.85;;
7939;SDS011;4015;48.888;9.226;2023-07-08T06:26:23;7.97;;;5.50;;
7939;SDS011;4015;48.888;9.226;2023-07-08T06:28:49;7.90;;;6.50;;
7939;SDS011;4015;48.888;9.226;2023-07-08T06:31:14;7.18;;;5.82;;
7939;SDS011;4015;48.888;9.226;2023-07-08T06:33:40;7.60;;;5.95;;
7939;SDS011;4015;48.888;9.226;2023-07-08T06:36:05;9.85;;;6.18;;
7939;SDS011;4015;48.888;9.226;2023-07-08T06:38:31;8.60;;;6.05;;
7939;SDS011;4015;48.888;9.226;2023-07-08T06:40:57;11.98;;;7.20;;
7939;SDS011;4015;48.888;9.226;2023-07-08T06:43:22;12.15;;;6.70;;
7939;SDS011;4015;48.888;9.226;2023-07-08T06:45:47;11.38;;;7.10;;
7939;SDS011;4015;48.888;9.226;2023-07-08T06:48:13;11.95;;;7.05;;
7939;SDS011;4015;48.888;9.226;2023-07-08T06:50:38;9.57;;;6.28;;
7939;SDS011;4015;48.888;9.226;2023-07-08T06:53:06;9.15;;;6.18;;
7939;SDS011;4015;48.888;9.226;2023-07-08T06:55:32;8.32;;;5.70;;
7939;SDS011;4015;48.888;9.226;2023-07-08T06:57:57;16.05;;;6.38;;
7939;SDS011;4015;48.888;9.226;2023-07-08T07:00:22;11.65;;;6.55;;
7939;SDS011;4015;48.888;9.226;2023-07-08T07:02:49;9.75;;;6.18;;
7939;SDS011;4015;48.888;9.226;2023-07-08T07:05:14;9.75;;;6.30;;
7939;SDS011;4015;48.888;9.226;2023-07-08T07:07:39;9.35;;;6.70;;
7939;SDS011;4015;48.888;9.226;2023-07-08T07:10:05;8.30;;;6.35;;
7939;SDS011;4015;48.888;9.226;2023-07-08T07:12:32;6.60;;;5.88;;
7939;SDS011;4015;48.888;9.226;2023-07-08T07:14:59;8.52;;;6.13;;
7939;SDS011;4015;48.888;9.226;2023-07-08T07:17:25;8.95;;;6.25;;
7939;SDS011;4015;48.888;9.226;2023-07-08T07:19:51;9.50;;;5.65;;
7939;SDS011;4015;48.888;9.226;2023-07-08T07:22:16;9.15;;;5.63;;
7939;SDS011;4015;48.888;9.226;2023-07-08T07:24:42;8.55;;;6.25;;
7939;SDS011;4015;48.888;9.226;2023-07-08T07:27:08;7.78;;;6.05;;
7939;SDS011;4015;48.888;9.226;2023-07-08T07:29:39;8.55;;;6.28;;
7939;SDS011;4015;48.888;9.226;2023-07-08T07:32:10;8.20;;;6.38;;
7939;SDS011;4015;48.888;9.226;2023-07-08T07:34:36;8.43;;;6.28;;
7939;SDS011;4015;48.888;9.226;2023-07-08T07:37:03;8.45;;;5.70;;
7939;SDS011;4015;48.888;9.226;2023-07-08T07:39:28;9.18;;;5.82;;
7939;SDS011;4015;48.888;9.226;2023-07-08T07:41:54;11.25;;;6.40;;
7939;SDS011;4015;48.888;9.226;2023-07-08T07:44:19;8.07;;;6.25;;
7939;SDS011;4015;48.888;9.226;2023-07-08T07:46:45;6.13;;;5.53;;
7939;SDS011;4015;48.888;9.226;2023-07-08T07:49:11;7.75;;;5.85;;
7939;SDS011;4015;48.888;9.226;2023-07-08T07:51:37;7.53;;;5.60;;
7939;SDS011;4015;48.888;9.226;2023-07-08T07:54:02;7.75;;;5.70;;
7939;SDS011;4015;48.888;9.226;2023-07-08T07:56:28;8.27;;;6.15;;
7939;SDS011;4015;48.888;9.226;2023-07-08T07:58:53;6.25;;;5.63;;
7939;SDS011;4015;48.888;9.226;2023-07-08T08:01:18;9.00;;;6.35;;
7939;SDS011;4015;48.888;9.226;2023-07-08T08:03:44;9.27;;;5.38;;
7939;SDS011;4015;48.888;9.226;2023-07-08T08:06:10;7.45;;;5.80;;
7939;SDS011;4015;48.888;9.226;2023-07-08T08:08:35;5.82;;;4.63;;
7939;SDS011;4015;48.888;9.226;2023-07-08T08:11:01;6.82;;;5.15;;
7939;SDS011;4015;48.888;9.226;2023-07-08T08:13:26;7.28;;;4.88;;
7939;SDS011;4015;48.888;9.226;2023-07-08T08:15:55;6.43;;;5.47;;
7939;SDS011;4015;48.888;9.226;2023-07-08T08:18:24;7.40;;;5.68;;
7939;SDS011;4015;48.888;9.226;2023-07-08T08:20:50;8.65;;;4.97;;
7939;SDS011;4015;48.888;9.226;2023-07-08T08:23:16;7.60;;;4.05;;
7939;SDS011;4015;48.888;9.226;2023-07-08T08:25:41;8.63;;;5.65;;
7939;SDS011;4015;48.888;9.226;2023-07-08T08:28:07;6.05;;;4.80;;
7939;SDS011;4015;48.888;9.226;2023-07-08T08:30:32;5.60;;;4.75;;
7939;SDS011;4015;48.888;9.226;2023-07-08T08:32:58;6.75;;;6.05;;
7939;SDS011;4015;48.888;9.226;2023-07-08T08:35:24;11.20;;;6.28;;
7939;SDS011;4015;48.888;9.226;2023-07-08T08:37:51;10.55;;;5.20;;
7939;SDS011;4015;48.888;9.226;2023-07-08T08:40:18;5.60;;;5.03;;
7939;SDS011;4015;48.888;9.226;2023-07-08T08:42:46;7.00;;;5.18;;
7939;SDS011;4015;48.888;9.226;2023-07-08T08:45:22;5.65;;;4.72;;
7939;SDS011;4015;48.888;9.226;2023-07-08T08:47:51;7.93;;;5.40;;
7939;SDS011;4015;48.888;9.226;2023-07-08T08:53:05;8.00;;;4.88;;
7939;SDS011;4015;48.888;9.226;2023-07-08T08:55:36;6.65;;;4.78;;
7939;SDS011;4015;48.888;9.226;2023-07-08T09:01:01;7.43;;;4.68;;
7939;SDS011;4015;48.888;9.226;2023-07-08T09:06:16;9.27;;;4.43;;
7939;SDS011;4015;48.888;9.226;2023-07-08T09:08:49;5.20;;;3.95;;
7939;SDS011;4015;48.888;9.226;2023-07-08T09:11:19;6.90;;;4.40;;
7939;SDS011;4015;48.888;9.226;2023-07-08T09:14:26;5.95;;;4.15;;
7939;SDS011;4015;48.888;9.226;2023-07-08T09:19:40;5.68;;;3.80;;
7939;SDS011;4015;48.888;9.226;2023-07-08T09:24:50;6.97;;;4.38;;
7939;SDS011;4015;48.888;9.226;2023-07-08T09:27:20;5.57;;;4.78;;
7939;SDS011;4015;48.888;9.226;2023-07-08T09:29:46;4.47;;;4.03;;
7939;SDS011;4015;48.888;9.226;2023-07-08T09:32:16;4.32;;;3.72;;
7939;SDS011;4015;48.888;9.226;2023-07-08T09:34:45;4.35;;;3.35;;
7939;SDS011;4015;48.888;9.226;2023-07-08T09:37:40;4.55;;;3.60;;
7939;SDS011;4015;48.888;9.226;2023-07-08T09:40:30;4.53;;;3.80;;
7939;SDS011;4015;48.888;9.226;2023-07-08T09:42:59;4.10;;;3.67;;
7939;SDS011;4015;48.888;9.226;2023-07-08T09:45:45;5.60;;;3.33;;
7939;SDS011;4015;48.888;9.226;2023-07-08T09:48:16;5.63;;;4.20;;
7939;SDS011;4015;48.888;9.226;2023-07-08T09:50:43;7.13;;;3.83;;
7939;SDS011;4015;48.888;9.226;2023-07-08T09:53:12;3.97;;;3.55;;
7939;SDS011;4015;48.888;9.226;2023-07-08T09:55:39;6.10;;;3.55;;
7939;SDS011;4015;48.888;9.226;2023-07-08T09:58:04;5.22;;;3.55;;
7939;SDS011;4015;48.888;9.226;2023-07-08T10:00:38;4.80;;;3.10;;
7939;SDS011;4015;48.888;9.226;2023-07-08T10:03:24;4.80;;;2.00;;
7939;SDS011;4015;48.888;9.226;2023-07-08T10:05:53;2.55;;;1.55;;
7939;SDS011;4015;48.888;9.226;2023-07-08T10:08:23;2.42;;;1.88;;
7939;SDS011;4015;48.888;9.226;2023-07-08T10:10:55;2.72;;;1.83;;
7939;SDS011;4015;48.888;9.226;2023-07-08T10:13:42;2.63;;;1.85;;
7939;SDS011;4015;48.888;9.226;2023-07-08T10:16:17;3.10;;;1.65;;
7939;SDS011;4015;48.888;9.226;2023-07-08T10:18:49;3.65;;;1.45;;
7939;SDS011;4015;48.888;9.226;2023-07-08T10:27:02;2.60;;;1.70;;
7939;SDS011;4015;48.888;9.226;2023-07-08T10:35:47;3.50;;;1.75;;
7939;SDS011;4015;48.888;9.226;2023-07-08T10:38:56;4.60;;;2.38;;
7939;SDS011;4015;48.888;9.226;2023-07-08T10:41:33;3.45;;;2.25;;
7939;SDS011;4015;48.888;9.226;2023-07-08T10:44:20;2.58;;;2.10;;
7939;SDS011;4015;48.888;9.226;2023-07-08T10:49:53;6.75;;;3.10;;
7939;SDS011;4015;48.888;9.226;2023-07-08T10:58:25;4.03;;;3.25;;
7939;SDS011;4015;48.888;9.226;2023-07-08T11:01:10;4.60;;;3.33;;
7939;SDS011;4015;48.888;9.226;2023-07-08T11:03:58;5.18;;;3.50;;
7939;SDS011;4015;48.888;9.226;2023-07-08T11:06:34;10.52;;;3.80;;
7939;SDS011;4015;48.888;9.226;2023-07-08T11:09:10;8.93;;;3.60;;
7939;SDS011;4015;48.888;9.226;2023-07-08T11:11:42;4.97;;;3.53;;
7939;SDS011;4015;48.888;9.226;2023-07-08T11:14:27;4.07;;;3.20;;
7939;SDS011;4015;48.888;9.226;2023-07-08T11:16:58;4.57;;;2.85;;
7939;SDS011;4015;48.888;9.226;2023-07-08T11:19:37;4.45;;;3.53;;
7939;SDS011;4015;48.888;9.226;2023-07-08T11:22:09;5.47;;;3.10;;
7939;SDS011;4015;48.888;9.226;2023-07-08T11:27:11;5.72;;;3.10;;
7939;SDS011;4015;48.888;9.226;2023-07-08T11:30:04;5.60;;;3.13;;
7939;SDS011;4015;48.888;9.226;2023-07-08T11:32:33;4.03;;;2.85;;
7939;SDS011;4015;48.888;9.226;2023-07-08T11:35:01;2.92;;;2.42;;
7939;SDS011;4015;48.888;9.226;2023-07-08T11:37:29;4.25;;;2.67;;
7939;SDS011;4015;48.888;9.226;2023-07-08T11:40:09;5.80;;;3.05;;
7939;SDS011;4015;48.888;9.226;2023-07-08T11:42:49;3.10;;;2.50;;
7939;SDS011;4015;48.888;9.226;2023-07-08T11:47:51;3.30;;;2.42;;
7939;SDS011;4015;48.888;9.226;2023-07-08T11:50:30;3.05;;;2.33;;
7939;SDS011;4015;48.888;9.226;2023-07-08T11:52:59;4.07;;;3.28;;
7939;SDS011;4015;48.888;9.226;2023-07-08T11:55:27;5.00;;;2.20;;
7939;SDS011;4015;48.888;9.226;2023-07-08T11:58:01;3.63;;;2.00;;
7939;SDS011;4015;48.888;9.226;2023-07-08T12:00:31;3.60;;;2.53;;
7939;SDS011;4015;48.888;9.226;2023-07-08T12:03:03;3.60;;;2.42;;
7939;SDS011;4015;48.888;9.226;2023-07-08T12:05:43;3.47;;;2.50;;
7939;SDS011;4015;48.888;9.226;2023-07-08T12:08:13;5.75;;;2.88;;
7939;SDS011;4015;48.888;9.226;2023-07-08T12:10:41;2.63;;;1.95;;
7939;SDS011;4015;48.888;9.226;2023-07-08T12:13:16;2.50;;;1.98;;
7939;SDS011;4015;48.888;9.226;2023-07-08T12:15:43;3.80;;;2.72;;
7939;SDS011;4015;48.888;9.226;2023-07-08T12:18:42;4.13;;;2.22;;
7939;SDS011;4015;48.888;9.226;2023-07-08T12:21:03;2.33;;;1.83;;
7939;SDS011;4015;48.888;9.226;2023-07-08T12:23:28;3.47;;;2.40;;
7939;SDS011;4015;48.888;9.226;2023-07-08T12:25:54;3.85;;;1.98;;
7939;SDS011;4015;48.888;9.226;2023-07-08T12:28:23;3.38;;;2.50;;
7939;SDS011;4015;48.888;9.226;2023-07-08T12:30:49;2.70;;;2.00;;
7939;SDS011;4015;48.888;9.226;2023-07-08T12:33:19;2.38;;;2.05;;
7939;SDS011;4015;48.888;9.226;2023-07-08T12:35:51;2.45;;;2.25;;
7939;SDS011;4015;48.888;9.226;2023-07-08T12:38:18;4.82;;;2.30;;
7939;SDS011;4015;48.888;9.226;2023-07-08T12:40:58;3.03;;;2.45;;
7939;SDS011;4015;48.888;9.226;2023-07-08T12:43:25;2.67;;;2.10;;
7939;SDS011;4015;48.888;9.226;2023-07-08T12:45:51;2.78;;;1.90;;
7939;SDS011;4015;48.888;9.226;2023-07-08T12:48:16;2.20;;;2.00;;
7939;SDS011;4015;48.888;9.226;2023-07-08T12:50:42;3.58;;;2.30;;
7939;SDS011;4015;48.888;9.226;2023-07-08T12:53:07;3.28;;;2.22;;
7939;SDS011;4015;48.888;9.226;2023-07-08T12:55:37;5.38;;;2.03;;
7939;SDS011;4015;48.888;9.226;2023-07-08T12:58:05;2.70;;;1.88;;
7939;SDS011;4015;48.888;9.226;2023-07-08T13:00:38;4.28;;;1.70;;
7939;SDS011;4015;48.888;9.226;2023-07-08T13:03:07;4.07;;;2.38;;
7939;SDS011;4015;48.888;9.226;2023-07-08T13:05:37;2.97;;;2.03;;
7939;SDS011;4015;48.888;9.226;2023-07-08T13:08:04;4.50;;;2.10;;
7939;SDS011;4015;48.888;9.226;2023-07-08T13:10:29;2.25;;;1.77;;
7939;SDS011;4015;48.888;9.226;2023-07-08T13:12:56;2.20;;;2.00;;
7939;SDS011;4015;48.888;9.226;2023-07-08T13:15:27;2.63;;;1.80;;
7939;SDS011;4015;48.888;9.226;2023-07-08T13:17:58;2.88;;;2.22;;
7939;SDS011;4015;48.888;9.226;2023-07-08T13:20:24;2.60;;;2.00;;
7939;SDS011;4015;48.888;9.226;2023-07-08T13:22:53;3.25;;;2.15;;
7939;SDS011;4015;48.888;9.226;2023-07-08T13:25:20;5.47;;;1.95;;
7939;SDS011;4015;48.888;9.226;2023-07-08T13:28:36;2.22;;;1.95;;
7939;SDS011;4015;48.888;9.226;2023-07-08T13:30:48;2.92;;;2.35;;
7939;SDS011;4015;48.888;9.226;2023-07-08T13:33:29;4.03;;;2.08;;
7939;SDS011;4015;48.888;9.226;2023-07-08T13:35:56;2.25;;;1.88;;
7939;SDS011;4015;48.888;9.226;2023-07-08T13:38:22;3.83;;;2.08;;
7939;SDS011;4015;48.888;9.226;2023-07-08T13:40:54;4.13;;;2.00;;
7939;SDS011;4015;48.888;9.226;2023-07-08T13:43:26;2.20;;;1.95;;
7939;SDS011;4015;48.888;9.226;2023-07-08T13:45:53;2.25;;;2.05;;
7939;SDS011;4015;48.888;9.226;2023-07-08T13:53:42;3.78;;;2.08;;
7939;SDS011;4015;48.888;9.226;2023-07-08T13:56:12;1.95;;;1.75;;
7939;SDS011;4015;48.888;9.226;2023-07-08T13:58:48;2.20;;;1.95;;
7939;SDS011;4015;48.888;9.226;2023-07-08T14:01:17;4.50;;;2.13;;
7939;SDS011;4015;48.888;9.226;2023-07-08T14:03:46;2.75;;;1.80;;
7939;SDS011;4015;48.888;9.226;2023-07-08T14:06:19;3.13;;;1.65;;
7939;SDS011;4015;48.888;9.226;2023-07-08T14:08:48;2.78;;;2.05;;
7939;SDS011;4015;48.888;9.226;2023-07-08T14:11:13;3.17;;;2.03;;
7939;SDS011;4015;48.888;9.226;2023-07-08T14:13:39;3.20;;;1.70;;
7939;SDS011;4015;48.888;9.226;2023-07-08T14:16:05;2.97;;;2.33;;
7939;SDS011;4015;48.888;9.226;2023-07-08T14:18:48;6.05;;;2.33;;
7939;SDS011;4015;48.888;9.226;2023-07-08T14:21:14;4.00;;;1.80;;
7939;SDS011;4015;48.888;9.226;2023-07-08T14:23:40;6.53;;;1.98;;
7939;SDS011;4015;48.888;9.226;2023-07-08T14:26:09;3.05;;;1.90;;
7939;SDS011;4015;48.888;9.226;2023-07-08T14:28:36;3.13;;;1.92;;
7939;SDS011;4015;48.888;9.226;2023-07-08T14:31:01;3.50;;;2.05;;
7939;SDS011;4015;48.888;9.226;2023-07-08T14:33:27;3.33;;;2.13;;
7939;SDS011;4015;48.888;9.226;2023-07-08T14:35:52;5.57;;;1.85;;
7939;SDS011;4015;48.888;9.226;2023-07-08T14:38:18;3.72;;;1.80;;
7939;SDS011;4015;48.888;9.226;2023-07-08T14:40:43;2.72;;;1.70;;
7939;SDS011;4015;48.888;9.226;2023-07-08T14:45:51;2.55;;;2.03;;
7939;SDS011;4015;48.888;9.226;2023-07-08T14:48:20;4.18;;;2.30;;
7939;SDS011;4015;48.888;9.226;2023-07-08T14:50:45;4.55;;;2.03;;
7939;SDS011;4015;48.888;9.226;2023-07-08T14:53:12;1.98;;;1.63;;
7939;SDS011;4015;48.888;9.226;2023-07-08T14:55:42;3.35;;;2.10;;
7939;SDS011;4015;48.888;9.226;2023-07-08T14:58:10;3.65;;;2.42;;
7939;SDS011;4015;48.888;9.226;2023-07-08T15:00:45;4.05;;;2.10;;
7939;SDS011;4015;48.888;9.226;2023-07-08T15:03:10;4.00;;;2.13;;
7939;SDS011;4015;48.888;9.226;2023-07-08T15:05:36;3.20;;;2.15;;
7939;SDS011;4015;48.888;9.226;2023-07-08T15:08:01;6.20;;;2.53;;
7939;SDS011;4015;48.888;9.226;2023-07-08T15:10:27;4.55;;;2.20;;
7939;SDS011;4015;48.888;9.226;2023-07-08T15:12:54;2.63;;;1.73;;
7939;SDS011;4015;48.888;9.226;2023-07-08T15:15:22;4.30;;;2.40;;
7939;SDS011;4015;48.888;9.226;2023-07-08T15:17:52;6.28;;;2.30;;
7939;SDS011;4015;48.888;9.226;2023-07-08T15:20:18;3.95;;;2.10;;
7939;SDS011;4015;48.888;9.226;2023-07-08T15:22:44;4.50;;;2.45;;
7939;SDS011;4015;48.888;9.226;2023-07-08T15:25:10;5.57;;;2.60;;
7939;SDS011;4015;48.888;9.226;2023-07-08T15:27:38;3.25;;;2.10;;
7939;SDS011;4015;48.888;9.226;2023-07-08T15:30:10;3.42;;;2.47;;
7939;SDS011;4015;48.888;9.226;2023-07-08T15:32:40;3.08;;;2.30;;
7939;SDS011;4015;48.888;9.226;2023-07-08T15:35:11;6.15;;;3.25;;
7939;SDS011;4015;48.888;9.226;2023-07-08T15:37:41;4.10;;;2.15;;
7939;SDS011;4015;48.888;9.226;2023-07-08T15:40:08;2.88;;;2.35;;
7939;SDS011;4015;48.888;9.226;2023-07-08T15:42:34;2.35;;;1.90;;
7939;SDS011;4015;48.888;9.226;2023-07-08T15:45:01;2.72;;;1.85;;
7939;SDS011;4015;48.888;9.226;2023-07-08T15:47:34;2.95;;;2.22;;
7939;SDS011;4015;48.888;9.226;2023-07-08T15:49:59;3.47;;;2.10;;
7939;SDS011;4015;48.888;9.226;2023-07-08T15:52:24;3.22;;;2.10;;
7939;SDS011;4015;48.888;9.226;2023-07-08T15:54:50;3.10;;;2.30;;
7939;SDS011;4015;48.888;9.226;2023-07-08T15:57:15;3.80;;;2.22;;
7939;SDS011;4015;48.888;9.226;2023-07-08T15:59:41;5.93;;;2.40;;
7939;SDS011;4015;48.888;9.226;2023-07-08T16:02:14;5.78;;;1.92;;
7939;SDS011;4015;48.888;9.226;2023-07-08T16:04:49;3.17;;;2.05;;
7939;SDS011;4015;48.888;9.226;2023-07-08T16:07:15;3.78;;;2.72;;
7939;SDS011;4015;48.888;9.226;2023-07-08T16:09:40;3.95;;;2.40;;
7939;SDS011;4015;48.888;9.226;2023-07-08T16:12:05;3.45;;;2.00;;
7939;SDS011;4015;48.888;9.226;2023-07-08T16:14:33;2.58;;;2.08;;
7939;SDS011;4015;48.888;9.226;2023-07-08T16:16:58;3.15;;;1.75;;
7939;SDS011;4015;48.888;9.226;2023-07-08T16:19:24;3.03;;;2.17;;
7939;SDS011;4015;48.888;9.226;2023-07-08T16:21:49;2.92;;;2.00;;
7939;SDS011;4015;48.888;9.226;2023-07-08T16:24:15;3.78;;;2.05;;